Главная страница
METAR-TAF:

METAR-TAF

Аэропорты :

Флорешты, Молдавия

широта: 47-51-45N, долгота: 028-12-45E, высота над уровнем моря: 101 м

METAR: отсутствует

Время: 14:49 (12:49 UTC)

Прогноз

Эта сводка был подготовлена 30 часа и 3 минут назад, в 06:46 UTC
Прогноз действительный с 16-го 06 UTC до 16-го 15 UTC
Ветер 16 Узел от восточный
Видимость: 7000 м
Рассеянная облачность на высоте 1200 фута
Сплошная облачность на высоте 3000 фута
временами
С 16-го 06 UTC до 16-го 15 UTC
Видимость: 3000 м
Рассеянная облачность на высоте 800 фута
Сплошная облачность на высоте 2500 фута
переохлажденный дождь, снег

TAF: LUBM 160646Z 1606/1615 09016KT 7000 BKN012 OVC030 TEMPO 1606/1615 3000 FZRA SN BKN008 OVC025

Метеонаблюдения и прогнозы для более 4000 аэропортов (сводки METAR и TAF).

Имеющиеся станции представлены на карте желтыми и красными точками.

Чтобы увидеть название станции, наведите на нее мышь.

Затем щелкните, чтобы увидеть метеонаблюдения и метеопрогнозы.

Управление картой: чтобы увеличить масштаб, щелкните зеленые кнопки с черным крестиком; чтобы уменьшить масштаб, щелкните зеленую кнопку с тире; для просмотра соседних карт щелкайте зеленые стрелки.


METAR-TAF: